Time;durP1;ratioP1;P1;durP2;ratioP2;P2;SDS_P1;SDS_P2;PMS_P1;PMS_P2;Temp;Humidity;BMP_temperature;BMP_pressure;BME280_temperature;BME280_humidity;BME280_pressure;Samples;Min_cycle;Max_cycle;Signal;HPM_P1;HPM_P2
2022/06/09 00:01:29;;;;;;;;;44.00;32.00;26.70;99.90;;;;;;4941062;28;8896;-69
2022/06/09 00:04:07;;;;;;;;;56.00;40.25;26.70;99.90;;;;;;4942904;29;8769;-69
2022/06/09 00:06:40;;;;;;;;;52.75;37.50;26.60;99.90;;;;;;4942046;28;8801;-67
2022/06/09 00:09:06;;;;;;;;;45.50;34.25;26.70;99.90;;;;;;4940927;29;8797;-70
2022/06/09 00:11:36;;;;;;;;;47.00;32.00;26.60;99.90;;;;;;4941801;28;8777;-67
2022/06/09 00:14:05;;;;;;;;;45.00;34.75;26.60;99.90;;;;;;4925316;29;8781;-68
2022/06/09 00:16:34;;;;;;;;;38.25;35.25;26.60;99.90;;;;;;4956744;28;8774;-69
2022/06/09 00:19:01;;;;;;;;;42.00;32.50;26.60;99.90;;;;;;4942770;29;8781;-63
2022/06/09 00:21:28;;;;;;;;;39.25;33.25;26.60;99.90;;;;;;4941794;28;9111;-70
2022/06/09 00:23:54;;;;;;;;;26.75;23.00;26.60;99.90;;;;;;4940567;29;8792;-68
2022/06/09 00:26:21;;;;;;;;;14.20;13.60;26.60;99.90;;;;;;4941751;28;8789;-68
2022/06/09 00:28:47;;;;;;;;;21.00;15.00;26.50;99.90;;;;;;4941834;28;8798;-68
2022/06/09 00:31:17;;;;;;;;;13.20;10.00;26.50;99.90;;;;;;4942617;29;8875;-68
2022/06/09 00:33:43;;;;;;;;;12.00;10.60;26.40;99.90;;;;;;4941432;28;8813;-69
2022/06/09 00:36:10;;;;;;;;;7.20;7.20;26.50;99.90;;;;;;4940515;28;8880;-65
2022/06/09 00:38:36;;;;;;;;;13.80;11.00;26.50;99.90;;;;;;4939642;28;8805;-69
2022/06/09 00:41:03;;;;;;;;;14.40;8.00;26.50;99.90;;;;;;4940543;28;8785;-67
2022/06/09 00:43:30;;;;;;;;;13.60;9.20;26.40;99.90;;;;;;4938575;28;8821;-65
2022/06/09 00:46:14;;;;;;;;;11.60;11.40;26.40;99.90;;;;;;4955391;28;9452;-70
2022/06/09 00:49:04;;;;;;;;;13.00;12.00;26.40;99.90;;;;;;4938649;29;8912;-66
2022/06/09 00:51:44;;;;;;;;;10.20;7.00;26.60;99.90;;;;;;4940143;28;9488;-65
2022/06/09 00:54:31;;;;;;;;;12.00;10.40;26.60;99.90;;;;;;4954177;28;8793;-68
2022/06/09 00:57:06;;;;;;;;;19.60;15.00;26.60;99.90;;;;;;4953645;28;8782;-64
2022/06/09 00:59:33;;;;;;;;;15.00;12.40;26.60;99.90;;;;;;4955045;28;8879;-69
2022/06/09 01:02:00;;;;;;;;;14.40;11.60;26.70;99.90;;;;;;4955760;28;8801;-70
2022/06/09 01:04:27;;;;;;;;;12.20;9.40;26.60;99.90;;;;;;4955719;28;8785;-57
2022/06/09 01:06:55;;;;;;;;;11.80;8.60;26.70;99.90;;;;;;4956280;28;8781;-69
2022/06/09 01:09:23;;;;;;;;;12.00;9.00;26.60;99.90;;;;;;4955056;28;8789;-70
2022/06/09 01:11:51;;;;;;;;;10.80;10.00;26.60;99.90;;;;;;4940770;28;8856;-60
2022/06/09 01:14:20;;;;;;;;;16.60;11.20;26.50;99.90;;;;;;4948832;29;8781;-56
2022/06/09 01:16:54;;;;;;;;;10.40;9.00;26.60;99.90;;;;;;4939855;28;9465;-67
2022/06/09 01:19:43;;;;;;;;;6.80;6.80;26.50;99.90;;;;;;4940439;29;8813;-69
2022/06/09 01:22:43;;;;;;;;;10.80;9.40;26.40;99.90;;;;;;4941254;28;8772;-69
2022/06/09 01:25:28;;;;;;;;;12.40;9.60;26.30;99.90;;;;;;4955702;28;8853;-61
2022/06/09 01:28:11;;;;;;;;;10.40;10.20;26.30;99.90;;;;;;4941588;29;8804;-59
2022/06/09 01:30:51;;;;;;;;;10.60;8.60;26.30;99.90;;;;;;4935906;29;8807;-68
2022/06/09 01:33:26;;;;;;;;;15.60;10.00;26.30;99.90;;;;;;4919929;29;8798;-66
2022/06/09 01:36:17;;;;;;;;;11.20;10.20;26.20;99.90;;;;;;4920507;29;8776;-67
2022/06/09 01:38:52;;;;;;;;;13.40;12.20;26.30;99.90;;;;;;4921599;28;9280;-56
2022/06/09 01:41:19;;;;;;;;;10.40;10.40;26.10;99.90;;;;;;4920202;28;8776;-65
2022/06/09 01:43:46;;;;;;;;;13.60;13.60;26.20;99.90;;;;;;4926487;28;8785;-64
2022/06/09 01:46:25;;;;;;;;;19.40;15.60;26.00;99.90;;;;;;4923496;29;8774;-71
2022/06/09 01:48:53;;;;;;;;;16.20;15.20;25.90;99.90;;;;;;4965836;28;8820;-70
2022/06/09 01:51:21;;;;;;;;;22.80;19.40;26.10;99.90;;;;;;4960927;28;8775;-66
2022/06/09 01:54:02;;;;;;;;;18.00;16.60;25.90;99.90;;;;;;4952932;28;8799;-66
2022/06/09 01:56:32;;;;;;;;;18.00;14.60;25.90;99.90;;;;;;4960265;28;8938;-71
2022/06/09 01:59:06;;;;;;;;;19.40;16.20;26.10;99.90;;;;;;4961384;28;8767;-71
2022/06/09 02:02:04;;;;;;;;;16.80;11.20;26.30;99.90;;;;;;4976963;28;8756;-66
2022/06/09 02:04:33;;;;;;;;;18.80;16.20;26.00;99.90;;;;;;4976653;28;8791;-51
2022/06/09 02:07:02;;;;;;;;;18.00;14.80;25.80;99.90;;;;;;4977950;28;8776;-71
2022/06/09 02:09:29;;;;;;;;;9.60;8.80;25.90;99.90;;;;;;4976459;28;8791;-70
2022/06/09 02:11:57;;;;;;;;;15.20;13.40;25.90;99.90;;;;;;4977819;28;8794;-67
2022/06/09 02:14:26;;;;;;;;;14.80;14.80;26.00;99.90;;;;;;4977517;28;8780;-68
2022/06/09 02:16:53;;;;;;;;;13.00;12.20;25.90;99.90;;;;;;4945291;28;8756;-67
2022/06/09 02:19:21;;;;;;;;;15.40;11.00;26.00;99.90;;;;;;4978794;28;8938;-68
2022/06/09 02:21:48;;;;;;;;;11.40;11.40;26.00;99.90;;;;;;4961233;28;8763;-66
2022/06/09 02:24:15;;;;;;;;;9.20;9.00;25.90;99.90;;;;;;4977315;28;8870;-70
2022/06/09 02:26:41;;;;;;;;;14.00;9.20;26.00;99.90;;;;;;4977428;28;8779;-68
2022/06/09 02:29:08;;;;;;;;;14.00;11.00;26.00;99.90;;;;;;4959809;28;8857;-68
2022/06/09 02:31:34;;;;;;;;;8.80;8.00;26.00;99.90;;;;;;4958806;28;8791;-69
2022/06/09 02:34:01;;;;;;;;;10.60;7.00;25.90;99.90;;;;;;4978219;28;8783;-70
2022/06/09 02:36:27;;;;;;;;;7.00;7.00;25.90;99.90;;;;;;4976701;28;9471;-69
2022/06/09 02:38:54;;;;;;;;;10.40;10.40;26.10;99.90;;;;;;4977307;28;9143;-68
2022/06/09 02:41:21;;;;;;;;;12.60;9.60;26.10;99.90;;;;;;4959703;28;8791;-68
2022/06/09 02:43:47;;;;;;;;;8.00;8.00;26.20;99.90;;;;;;4976106;28;8784;-70
2022/06/09 02:46:14;;;;;;;;;14.40;11.40;26.30;99.90;;;;;;4960742;28;8854;-69
2022/06/09 02:48:41;;;;;;;;;11.00;10.20;26.30;99.90;;;;;;4976066;28;8815;-68
2022/06/09 02:51:30;;;;;;;;;8.00;6.80;26.40;99.90;;;;;;4975716;28;8787;-67
2022/06/09 02:53:57;;;;;;;;;8.40;8.40;26.60;99.90;;;;;;4961724;28;8809;-72
2022/06/09 02:56:24;;;;;;;;;12.40;9.20;27.20;99.90;;;;;;4977426;28;8821;-70
2022/06/09 02:58:51;;;;;;;;;14.80;10.80;26.90;99.90;;;;;;4960533;28;8823;-65
2022/06/09 03:01:18;;;;;;;;;7.40;7.40;26.90;99.90;;;;;;4977441;28;8830;-72
2022/06/09 03:03:45;;;;;;;;;9.80;6.60;27.20;99.90;;;;;;4977385;28;8825;-64
2022/06/09 03:06:12;;;;;;;;;8.20;7.00;26.90;99.90;;;;;;4976463;28;8779;-73
2022/06/09 03:08:38;;;;;;;;;6.80;5.40;26.40;99.90;;;;;;4977292;28;8814;-70
2022/06/09 03:11:06;;;;;;;;;7.20;4.60;26.50;99.90;;;;;;4977138;28;8771;-67
2022/06/09 03:13:32;;;;;;;;;6.00;5.60;26.80;99.90;;;;;;4976972;28;8796;-73
2022/06/09 03:15:59;;;;;;;;;7.40;5.00;27.20;99.90;;;;;;4960825;28;8780;-67
2022/06/09 03:18:26;;;;;;;;;6.00;6.00;27.20;99.90;;;;;;4959742;28;8776;-71
2022/06/09 03:20:52;;;;;;;;;7.20;5.20;27.10;99.90;;;;;;4977557;28;8767;-68
2022/06/09 03:23:19;;;;;;;;;5.60;5.00;27.50;99.90;;;;;;4977045;28;8783;-68
2022/06/09 03:25:45;;;;;;;;;5.20;4.80;27.30;99.90;;;;;;4976279;28;8787;-73
2022/06/09 03:28:12;;;;;;;;;4.40;4.40;26.90;99.90;;;;;;4960811;28;8764;-69
2022/06/09 03:30:38;;;;;;;;;8.40;6.40;27.20;99.90;;;;;;4960074;28;8794;-72
2022/06/09 03:33:05;;;;;;;;;7.40;7.00;26.90;99.90;;;;;;4977365;28;8831;-69
2022/06/09 03:35:32;;;;;;;;;5.60;5.00;27.30;99.90;;;;;;4974485;28;8767;-67
2022/06/09 03:37:59;;;;;;;;;9.40;6.20;27.00;99.90;;;;;;4976618;28;8818;-79
2022/06/09 03:40:27;;;;;;;;;10.40;9.60;27.50;99.90;;;;;;4975283;28;8976;-74
2022/06/09 03:42:54;;;;;;;;;5.80;5.60;27.30;99.90;;;;;;4979774;28;8930;-68
2022/06/09 03:45:21;;;;;;;;;9.20;7.60;27.70;99.90;;;;;;4959744;28;8781;-75
2022/06/09 03:47:48;;;;;;;;;11.60;8.80;27.60;99.90;;;;;;4961443;28;9098;-71
2022/06/09 03:50:19;;;;;;;;;6.20;4.80;27.90;99.90;;;;;;4959692;28;8813;-73
2022/06/09 03:52:46;;;;;;;;;6.40;5.20;28.00;99.90;;;;;;4960837;28;8762;-73
2022/06/09 03:55:13;;;;;;;;;8.60;6.80;28.10;99.90;;;;;;4961256;28;8757;-76
2022/06/09 03:57:39;;;;;;;;;7.40;6.40;27.70;99.90;;;;;;4959684;28;8801;-73
2022/06/09 04:00:07;;;;;;;;;6.00;6.00;28.10;99.90;;;;;;4966018;28;8797;-76
2022/06/09 04:02:34;;;;;;;;;9.60;5.60;;;;;;;;4930302;28;8869;-72
2022/06/09 04:05:01;;;;;;;;;5.20;4.80;;;;;;;;4980796;28;8779;-73
2022/06/09 04:07:28;;;;;;;;;4.20;4.00;;;;;;;;4980095;28;8894;-73
2022/06/09 04:09:55;;;;;;;;;5.00;5.00;;;;;;;;4964502;28;8798;-71
2022/06/09 04:12:22;;;;;;;;;11.20;10.00;;;;;;;;4978051;28;8795;-72
2022/06/09 04:14:48;;;;;;;;;11.80;8.60;;;;;;;;4980084;28;8755;-74
2022/06/09 04:17:15;;;;;;;;;7.80;7.80;;;;;;;;4980140;28;8811;-73
2022/06/09 04:19:41;;;;;;;;;7.60;7.00;;;;;;;;4962790;28;8768;-74
2022/06/09 04:22:08;;;;;;;;;9.20;6.60;;;;;;;;4980696;28;8748;-73
2022/06/09 04:24:35;;;;;;;;;5.60;5.40;;;;;;;;4979746;28;8800;-73
2022/06/09 04:27:02;;;;;;;;;8.20;5.80;;;;;;;;4978953;28;8781;-71
2022/06/09 04:29:28;;;;;;;;;5.00;4.00;;;;;;;;4961355;28;8826;-71
2022/06/09 04:31:55;;;;;;;;;4.40;4.40;;;;;;;;4960651;28;8815;-72
2022/06/09 04:34:22;;;;;;;;;5.20;5.00;;;;;;;;4980191;28;8803;-71
2022/06/09 04:36:48;;;;;;;;;5.80;4.20;;;;;;;;4979034;28;8798;-71
2022/06/09 04:39:15;;;;;;;;;4.60;3.00;;;;;;;;4979895;28;8854;-71
2022/06/09 04:41:42;;;;;;;;;5.20;3.60;;;;;;;;4969556;28;8908;-70
2022/06/09 04:44:08;;;;;;;;;5.80;4.00;;;;;;;;4942541;28;8883;-71
2022/06/09 04:46:35;;;;;;;;;3.00;3.00;;;;;;;;4975571;28;8792;-72
2022/06/09 04:49:02;;;;;;;;;5.20;5.00;;;;;;;;4956341;29;8794;-71
2022/06/09 04:51:31;;;;;;;;;5.00;4.00;;;;;;;;4948982;28;8933;-70
2022/06/09 04:53:57;;;;;;;;;5.60;4.80;;;;;;;;4941104;29;9407;-70
2022/06/09 04:56:24;;;;;;;;;4.80;3.80;;;;;;;;4923255;29;8761;-72
2022/06/09 04:58:51;;;;;;;;;2.20;0.00;;;;;;;;4945223;28;8790;-70
2022/06/09 05:01:23;;;;;;;;;4.80;4.00;;;;;;;;4960498;28;8790;-69
2022/06/09 05:03:49;;;;;;;;;5.40;4.00;;;;;;;;4959429;28;8814;-73
2022/06/09 05:06:19;;;;;;;;;5.40;3.80;;;;;;;;4960340;28;8802;-69
2022/06/09 05:08:46;;;;;;;;;3.00;3.00;;;;;;;;4960003;28;8799;-72
2022/06/09 05:11:13;;;;;;;;;6.00;2.80;;;;;;;;4958595;28;8778;-72
2022/06/09 05:13:40;;;;;;;;;2.00;2.00;;;;;;;;4959314;28;8794;-71
2022/06/09 05:16:08;;;;;;;;;2.00;2.00;;;;;;;;4975280;28;8755;-74
2022/06/09 05:18:34;;;;;;;;;5.00;3.60;;;;;;;;4959526;28;9502;-74
2022/06/09 05:21:01;;;;;;;;;3.00;3.00;;;;;;;;4959370;28;8798;-65
2022/06/09 05:23:28;;;;;;;;;4.40;2.00;;;;;;;;4960039;28;8777;-65
2022/06/09 05:25:55;;;;;;;;;2.40;2.40;;;;;;;;4959993;28;8871;-74
2022/06/09 05:28:22;;;;;;;;;2.40;1.80;;;;;;;;4960337;28;8898;-70
2022/06/09 05:30:48;;;;;;;;;3.40;3.00;;;;;;;;4959003;28;8883;-71
2022/06/09 05:33:15;;;;;;;;;3.20;2.00;;;;;;;;4960572;28;8918;-71
2022/06/09 05:35:42;;;;;;;;;3.20;2.00;;;;;;;;4959532;28;8819;-66
2022/06/09 05:46:23;;;;;;;;;3.00;3.00;;;;;;;;4959944;28;8889;-70
2022/06/09 05:48:50;;;;;;;;;4.20;3.00;;;;;;;;4972616;28;8807;-74
2022/06/09 05:51:17;;;;;;;;;6.00;4.20;;;;;;;;4979509;28;9428;-72
2022/06/09 05:53:44;;;;;;;;;4.40;3.80;;;;;;;;4962686;28;8787;-72
2022/06/09 05:56:10;;;;;;;;;5.40;5.40;;;;;;;;4962754;28;8855;-74
2022/06/09 05:58:37;;;;;;;;;5.40;5.00;;;;;;;;4979282;28;8862;-70
2022/06/09 06:01:05;;;;;;;;;5.00;5.00;;;;;;;;4979397;28;8847;-73
2022/06/09 06:03:31;;;;;;;;;5.00;4.60;;;;;;;;4977259;28;9417;-71
2022/06/09 06:08:43;;;;;;;;;5.40;4.40;;;;;;;;4976688;28;8775;-73
2022/06/09 06:11:09;;;;;;;;;6.40;6.40;;;;;;;;4978368;28;9012;-64
2022/06/09 06:13:36;;;;;;;;;5.80;5.80;;;;;;;;4977051;28;8858;-80
2022/06/09 06:16:03;;;;;;;;;7.20;6.20;;;;;;;;4962264;28;8865;-73
2022/06/09 06:18:30;;;;;;;;;6.40;6.00;;;;;;;;4962278;28;8792;-74
2022/06/09 06:20:56;;;;;;;;;8.60;7.00;;;;;;;;4978485;28;8898;-70
2022/06/09 06:23:23;;;;;;;;;5.80;5.20;;;;;;;;4977826;28;8784;-78
2022/06/09 06:25:50;;;;;;;;;8.00;6.20;;;;;;;;4978809;28;8794;-78
2022/06/09 06:28:17;;;;;;;;;9.40;7.80;;;;;;;;4979126;28;8790;-76
2022/06/09 06:30:43;;;;;;;;;9.40;6.20;;;;;;;;4979249;28;8976;-77
2022/06/09 06:33:10;;;;;;;;;5.60;4.40;;;;;;;;4979764;28;8819;-66
2022/06/09 06:35:37;;;;;;;;;9.20;5.00;;;;;;;;4979359;28;8811;-63
2022/06/09 06:38:04;;;;;;;;;8.00;7.40;;;;;;;;4961468;28;8768;-77
2022/06/09 06:40:31;;;;;;;;;3.00;2.00;;;;;;;;4978964;28;8798;-70
2022/06/09 06:42:57;;;;;;;;;6.60;6.60;;;;;;;;4979104;28;8838;-59
2022/06/09 06:45:25;;;;;;;;;6.80;6.80;;;;;;;;4978977;28;8763;-72
2022/06/09 06:47:52;;;;;;;;;6.00;4.20;;;;;;;;4978324;28;8909;-74
2022/06/09 06:50:19;;;;;;;;;9.20;5.00;;;;;;;;4960717;28;9440;-57
2022/06/09 06:52:45;;;;;;;;;9.00;6.60;;;;;;;;4977849;28;8823;-81
2022/06/09 06:55:13;;;;;;;;;8.80;8.00;;;;;;;;4979429;28;8748;-62
2022/06/09 06:57:40;;;;;;;;;6.20;4.20;;;;;;;;4978350;28;8861;-73
2022/06/09 07:00:07;;;;;;;;;11.00;7.60;;;;;;;;4961401;28;8759;-81
2022/06/09 07:02:34;;;;;;;;;7.40;5.80;;;;;;;;4960820;28;8873;-69
2022/06/09 07:05:00;;;;;;;;;7.80;6.40;;;;;;;;4978257;28;9435;-72
2022/06/09 07:07:27;;;;;;;;;7.60;7.20;;;;;;;;4960641;28;8887;-57
2022/06/09 07:09:54;;;;;;;;;8.20;5.20;;;;;;;;4978891;28;8760;-79
2022/06/09 07:12:20;;;;;;;;;8.20;7.80;;;;;;;;4966808;28;8965;-64
2022/06/09 07:14:47;;;;;;;;;6.00;5.00;;;;;;;;4960516;28;8810;-71
2022/06/09 07:17:14;;;;;;;;;8.60;6.80;;;;;;;;4978925;28;8759;-81
2022/06/09 07:19:40;;;;;;;;;10.20;7.20;;;;;;;;4981602;28;8842;-81
2022/06/09 07:22:10;;;;;;;;;9.40;8.00;;;;;;;;4982712;28;8787;-84
2022/06/09 07:24:36;;;;;;;;;9.40;7.80;;;;;;;;4981615;28;8791;-82
2022/06/09 07:27:03;;;;;;;;;6.60;6.60;;;;;;;;4982084;28;8899;-78
2022/06/09 07:29:31;;;;;;;;;10.20;7.80;;;;;;;;4966341;28;8759;-80
2022/06/09 07:31:58;;;;;;;;;7.40;6.00;;;;;;;;4982076;28;8755;-60
2022/06/09 07:34:24;;;;;;;;;5.60;3.80;;;;;;;;4981621;28;8815;-70
2022/06/09 07:36:51;;;;;;;;;7.00;7.00;;;;;;;;4964716;28;8794;-77
2022/06/09 07:39:18;;;;;;;;;2.60;1.00;;;;;;;;4981155;28;8780;-71
2022/06/09 07:41:45;;;;;;;;;6.60;6.40;;;;;;;;4980718;28;8768;-69
2022/06/09 07:44:11;;;;;;;;;9.80;7.00;;;;;;;;4964520;28;8756;-72
2022/06/09 07:46:39;;;;;;;;;6.00;6.00;;;;;;;;4981544;28;8810;-71
2022/06/09 07:49:06;;;;;;;;;10.40;7.20;;;;;;;;4982454;28;8791;-76
2022/06/09 07:51:33;;;;;;;;;6.00;6.00;;;;;;;;4964024;28;8775;-71
2022/06/09 07:54:00;;;;;;;;;9.00;5.20;;;;;;;;4982039;28;8819;-76
2022/06/09 07:56:26;;;;;;;;;8.40;6.40;;;;;;;;4964166;28;8850;-78
2022/06/09 07:58:53;;;;;;;;;6.40;6.00;;;;;;;;4981813;28;8763;-71
2022/06/09 08:01:22;;;;;;;;;11.80;7.60;;;;;;;;4982435;28;8869;-69
2022/06/09 08:03:49;;;;;;;;;8.00;7.40;;;;;;;;4981881;28;8771;-77
2022/06/09 08:06:16;;;;;;;;;7.60;7.00;;;;;;;;4981796;28;8787;-76
2022/06/09 08:08:43;;;;;;;;;8.80;8.40;;;;;;;;4981528;28;9444;-70
2022/06/09 08:11:10;;;;;;;;;8.40;8.20;;;;;;;;4982104;28;8790;-71
2022/06/09 08:13:37;;;;;;;;;10.60;7.20;;;;;;;;4960744;28;8822;-59
2022/06/09 08:16:04;;;;;;;;;11.60;9.40;;;;;;;;4963322;28;8788;-70
2022/06/09 08:18:31;;;;;;;;;6.60;6.60;;;;;;;;4961525;28;8789;-66
2022/06/09 08:20:57;;;;;;;;;7.40;6.20;;;;;;;;4962255;28;8797;-69
2022/06/09 08:23:25;;;;;;;;;7.00;7.00;;;;;;;;4961938;28;8884;-68
2022/06/09 08:25:53;;;;;;;;;11.60;11.00;;;;;;;;4976999;28;8766;-72
2022/06/09 08:28:23;;;;;;;;;11.80;9.00;;;;;;;;4978145;28;8774;-64
2022/06/09 08:30:51;;;;;;;;;10.60;8.20;;;;;;;;4980960;28;9009;-68
2022/06/09 08:33:18;;;;;;;;;9.20;9.20;;;;;;;;4980681;28;8942;-65
2022/06/09 08:35:45;;;;;;;;;11.60;8.40;;;;;;;;4963753;28;8894;-71
2022/06/09 08:38:12;;;;;;;;;10.80;9.80;;;;;;;;4981040;28;8854;-69
2022/06/09 08:40:41;;;;;;;;;12.40;10.00;;;;;;;;4963727;28;8821;-68
2022/06/09 08:43:11;;;;;;;;;10.00;9.80;;;;;;;;4980847;28;8826;-72
2022/06/09 08:45:38;;;;;;;;;12.20;9.00;;;;;;;;4959503;28;8796;-68
2022/06/09 08:48:06;;;;;;;;;11.00;8.60;;;;;;;;4960567;28;9525;-69
2022/06/09 08:50:36;;;;;;;;;8.60;6.00;;;;;;;;4943111;28;8769;-72
2022/06/09 08:53:12;;;;;;;;;11.20;8.40;;;;;;;;4943251;28;8810;-70
2022/06/09 08:55:39;;;;;;;;;8.60;7.40;;;;;;;;4958636;28;8798;-72
2022/06/09 08:58:13;;;;;;;;;12.20;10.60;;;;;;;;4960984;28;8770;-60
2022/06/09 09:00:44;;;;;;;;;12.80;9.00;;;;;;;;4960041;28;9470;-63
2022/06/09 09:03:13;;;;;;;;;7.20;6.60;;;;;;;;4960247;28;8805;-71
2022/06/09 09:05:41;;;;;;;;;6.80;6.80;;;;;;;;4959181;28;8796;-70
2022/06/09 09:08:08;;;;;;;;;9.60;9.00;;;;;;;;4960559;28;8839;-70
2022/06/09 09:10:51;;;;;;;;;11.60;10.40;;;;;;;;4959131;28;8785;-65
2022/06/09 09:13:38;;;;;;;;;15.80;12.00;;;;;;;;4961003;28;8797;-71
2022/06/09 09:16:19;;;;;;;;;13.40;12.00;;;;;;;;4980127;28;8960;-66
2022/06/09 09:18:55;;;;;;;;;14.00;11.00;;;;;;;;4979415;28;8780;-71
2022/06/09 09:21:25;;;;;;;;;13.40;10.80;;;;;;;;4979264;28;8780;-63
2022/06/09 09:24:08;;;;;;;;;14.40;12.80;;;;;;;;4979781;28;8771;-63
2022/06/09 09:26:35;;;;;;;;;10.60;10.20;;;;;;;;4979273;28;8881;-72
2022/06/09 09:29:07;;;;;;;;;13.00;10.60;;;;;;;;4980011;28;8830;-68
2022/06/09 09:31:37;;;;;;;;;9.40;8.20;;;;;;;;4963174;28;9471;-70
2022/06/09 09:34:03;;;;;;;;;10.80;10.20;;;;;;;;4964166;28;8808;-72
2022/06/09 09:36:31;;;;;;;;;11.60;11.00;;;;;;;;4979979;28;8783;-66
2022/06/09 09:39:04;;;;;;;;;10.40;9.00;;;;;;;;4979918;28;8934;-59
2022/06/09 09:41:31;;;;;;;;;9.00;9.00;;;;;;;;4979070;28;8795;-74
2022/06/09 09:43:58;;;;;;;;;14.00;11.40;;;;;;;;4979515;28;8759;-64
2022/06/09 09:46:30;;;;;;;;;15.00;12.00;;;;;;;;4979123;28;8740;-71
2022/06/09 09:48:57;;;;;;;;;12.20;10.40;;;;;;;;4980139;28;8802;-63
2022/06/09 09:51:31;;;;;;;;;11.40;10.60;;;;;;;;4979188;28;8870;-72
2022/06/09 09:53:58;;;;;;;;;9.60;8.20;;;;;;;;4977816;28;8806;-73
2022/06/09 09:56:26;;;;;;;;;14.80;9.60;;;;;;;;4978986;28;8790;-68
2022/06/09 09:58:57;;;;;;;;;12.40;8.80;;;;;;;;4959027;28;8765;-72
2022/06/09 10:01:24;;;;;;;;;12.40;11.20;;;;;;;;4960902;28;8943;-64
2022/06/09 10:09:36;;;;;;;;;13.60;9.00;;;;;;;;4959687;28;8884;-71
2022/06/09 10:12:16;;;;;;;;;11.40;9.40;;;;;;;;4958707;28;8785;-54
2022/06/09 10:14:43;;;;;;;;;12.20;11.60;;;;;;;;4977890;28;8851;-62
2022/06/09 10:17:21;;;;;;;;;14.60;10.80;;;;;;;;4979282;28;8759;-68
2022/06/09 10:19:53;;;;;;;;;13.80;13.80;;;;;;;;4979573;28;8775;-70
2022/06/09 10:22:20;;;;;;;;;13.80;12.00;;;;;;;;4979046;28;9424;-72
2022/06/09 10:24:49;;;;;;;;;10.40;10.40;;;;;;;;4979187;28;8748;-69
2022/06/09 10:27:17;;;;;;;;;15.60;11.80;;;;;;;;4961652;28;9014;-60
2022/06/09 10:30:13;;;;;;;;;11.00;10.60;;;;;;;;4979138;28;8779;-59
2022/06/09 10:32:42;;;;;;;;;14.00;12.00;;;;;;;;4963041;28;8790;-72
2022/06/09 10:35:28;;;;;;;;;16.00;12.80;;;;;;;;4978824;28;9071;-73
2022/06/09 10:37:56;;;;;;;;;10.20;10.20;;;;;;;;4978738;28;8756;-69
2022/06/09 10:40:23;;;;;;;;;14.20;10.60;;;;;;;;4978876;28;8834;-72
2022/06/09 10:42:52;;;;;;;;;16.80;12.60;;;;;;;;4961763;28;8878;-47
2022/06/09 10:45:37;;;;;;;;;14.20;14.00;;;;;;;;4978365;28;8845;-65
2022/06/09 10:56:42;;;;;;;;;9.40;9.40;;;;;;;;4981326;28;8779;-73
2022/06/09 10:59:20;;;;;;;;;15.60;12.20;;;;;;;;4981553;28;8822;-57
2022/06/09 11:01:47;;;;;;;;;10.00;8.00;;;;;;;;4965917;28;8740;-74
2022/06/09 11:04:15;;;;;;;;;12.60;10.40;;;;;;;;4966384;28;8788;-62
2022/06/09 11:06:49;;;;;;;;;11.40;10.00;;;;;;;;4982431;28;8779;-51
2022/06/09 11:09:20;;;;;;;;;12.60;11.40;;;;;;;;4964988;28;8760;-72
2022/06/09 11:11:46;;;;;;;;;13.20;11.80;;;;;;;;4982038;28;8846;-58
2022/06/09 11:14:16;;;;;;;;;12.40;12.40;;;;;;;;4964389;28;8774;-69
2022/06/09 11:16:52;;;;;;;;;12.60;12.00;;;;;;;;4982133;28;8878;-64
2022/06/09 11:19:37;;;;;;;;;14.00;10.75;;;;;;;;4981577;28;8863;-63
2022/06/09 11:22:07;;;;;;;;;11.00;11.00;;;;;;;;4982852;28;8748;-61
2022/06/09 11:24:56;;;;;;;;;14.75;13.00;;;;;;;;4981838;28;8834;-60
2022/06/09 11:27:38;;;;;;;;;16.75;15.00;;;;;;;;4981938;28;8775;-72
2022/06/09 11:30:04;;;;;;;;;19.25;16.50;;;;;;;;4981033;28;8755;-71
2022/06/09 11:32:39;;;;;;;;;14.00;10.20;;;;;;;;4982098;28;8768;-50
2022/06/09 11:35:21;;;;;;;;;17.20;15.40;;;;;;;;4964763;28;8890;-72
2022/06/09 11:37:48;;;;;;;;;23.80;16.00;;;;;;;;4981971;28;8834;-53
2022/06/09 11:40:17;;;;;;;;;19.75;17.00;;;;;;;;4982695;28;8766;-74
2022/06/09 11:42:56;;;;;;;;;20.75;16.00;;;;;;;;4981918;28;8795;-56
2022/06/09 11:45:33;;;;;;;;;16.20;13.80;;;;;;;;4981696;28;8760;-58
2022/06/09 11:48:01;;;;;;;;;17.60;15.80;;;;;;;;4955583;29;8778;-72
2022/06/09 11:50:38;;;;;;;;;18.40;16.00;;;;;;;;4957474;28;8820;-75
2022/06/09 11:53:04;;;;;;;;;17.80;14.80;;;;;;;;4957816;28;9435;-73
2022/06/09 11:58:37;;;;;;;;;13.00;13.00;;;;;;;;4943218;29;8896;-64
2022/06/09 12:01:22;;;;;;;;;13.20;10.60;;;;;;;;4942312;29;8820;-68
2022/06/09 12:04:08;;;;;;;;;17.20;16.40;;;;;;;;4942314;28;8781;-75
2022/06/09 12:06:39;;;;;;;;;12.40;12.00;;;;;;;;4942599;28;8851;-71
2022/06/09 12:09:05;;;;;;;;;11.00;9.00;;;;;;;;4957573;28;9003;-50
2022/06/09 12:11:51;;;;;;;;;13.00;11.60;;;;;;;;4957175;29;8778;-64
2022/06/09 12:14:18;;;;;;;;;13.60;12.40;;;;;;;;4942771;28;8904;-64
2022/06/09 12:17:07;;;;;;;;;8.60;7.40;;;;;;;;4943208;28;8843;-72
2022/06/09 12:19:38;;;;;;;;;13.00;10.80;;;;;;;;4942278;28;8770;-60
2022/06/09 12:22:37;;;;;;;;;14.00;10.60;;;;;;;;4941525;28;9528;-62
2022/06/09 12:25:10;;;;;;;;;12.20;8.80;;;;;;;;4941537;29;8761;-72
2022/06/09 12:27:37;;;;;;;;;13.60;11.00;;;;;;;;4942347;28;8789;-72
2022/06/09 12:30:04;;;;;;;;;11.60;11.00;;;;;;;;4942101;28;8789;-69
2022/06/09 12:32:49;;;;;;;;;10.00;9.80;;;;;;;;4956486;28;8826;-57
2022/06/09 12:35:34;;;;;;;;;13.20;10.80;;;;;;;;4942383;28;9471;-68
2022/06/09 12:38:18;;;;;;;;;7.60;7.20;;;;;;;;4956851;28;8892;-72
2022/06/09 12:40:47;;;;;;;;;11.20;10.80;;;;;;;;4956986;28;8817;-72
2022/06/09 12:43:22;;;;;;;;;4.00;2.80;;;;;;;;4957602;29;8865;-72
2022/06/09 12:46:04;;;;;;;;;12.60;11.40;;;;;;;;4942511;28;8773;-73
2022/06/09 12:48:30;;;;;;;;;13.40;11.80;;;;;;;;4955973;28;8972;-71
2022/06/09 12:50:57;;;;;;;;;13.00;12.40;;;;;;;;4942229;28;8782;-70
2022/06/09 12:53:25;;;;;;;;;12.20;11.20;;;;;;;;4956371;28;9029;-62
2022/06/09 12:55:56;;;;;;;;;12.60;11.80;;;;;;;;4940873;29;8815;-72
2022/06/09 12:58:42;;;;;;;;;11.60;9.80;;;;;;;;4941961;29;8785;-72
2022/06/09 13:01:12;;;;;;;;;11.00;8.80;;;;;;;;4956798;28;8796;-52
2022/06/09 13:03:49;;;;;;;;;11.60;9.60;;;;;;;;4941479;28;8863;-68
2022/06/09 13:06:20;;;;;;;;;11.60;11.60;;;;;;;;4941373;28;8801;-71
2022/06/09 13:08:47;;;;;;;;;9.20;8.40;;;;;;;;4956292;28;8758;-73
2022/06/09 13:11:19;;;;;;;;;9.20;8.20;;;;;;;;4956169;28;8781;-46
2022/06/09 13:13:45;;;;;;;;;14.00;9.60;;;;;;;;4954636;28;8770;-66
2022/06/09 13:16:14;;;;;;;;;11.80;9.80;;;;;;;;4941768;28;8800;-61
2022/06/09 13:18:42;;;;;;;;;12.20;10.40;;;;;;;;4955895;28;8821;-73
2022/06/09 13:21:22;;;;;;;;;9.80;9.00;;;;;;;;4941739;28;8844;-72
2022/06/09 13:23:49;;;;;;;;;12.80;8.60;;;;;;;;4941528;28;8812;-65
2022/06/09 13:26:17;;;;;;;;;13.20;12.40;;;;;;;;4941378;28;8789;-61
2022/06/09 13:28:53;;;;;;;;;14.20;10.20;;;;;;;;4940991;28;8910;-73
2022/06/09 13:31:33;;;;;;;;;11.40;10.60;;;;;;;;4941858;28;8754;-67
2022/06/09 13:34:00;;;;;;;;;15.00;11.40;;;;;;;;4941511;29;8774;-72
2022/06/09 13:36:34;;;;;;;;;14.60;10.80;;;;;;;;4940823;28;8813;-69
2022/06/09 13:39:20;;;;;;;;;11.60;11.40;;;;;;;;4955853;28;8762;-73
2022/06/09 13:41:47;;;;;;;;;12.80;10.00;;;;;;;;4941073;28;8769;-72
2022/06/09 13:44:23;;;;;;;;;11.20;10.60;;;;;;;;4950677;29;8777;-68
2022/06/09 13:47:01;;;;;;;;;12.40;10.20;;;;;;;;4941202;28;8865;-71
2022/06/09 13:49:32;;;;;;;;;10.60;9.00;;;;;;;;4975499;28;8800;-66
2022/06/09 13:52:00;;;;;;;;;11.00;9.00;;;;;;;;4962925;28;8886;-72
2022/06/09 13:54:27;;;;;;;;;11.40;9.40;;;;;;;;4979131;28;8829;-70
2022/06/09 13:56:54;;;;;;;;;10.00;9.20;;;;;;;;4979799;28;8744;-72
2022/06/09 13:59:20;;;;;;;;;12.00;8.60;;;;;;;;4978032;28;8779;-68
2022/06/09 14:01:52;;;;;;;;;12.40;10.00;;;;;;;;4979482;28;8775;-60
2022/06/09 14:04:25;;;;;;;;;11.40;8.80;;;;;;;;4979802;28;8857;-71
2022/06/09 14:06:52;;;;;;;;;9.20;9.20;;;;;;;;4979794;28;8888;-68
2022/06/09 14:09:18;;;;;;;;;12.80;9.20;;;;;;;;4978900;28;8783;-72
2022/06/09 14:11:45;;;;;;;;;8.80;8.60;;;;;;;;4962201;28;8851;-70
2022/06/09 14:14:11;;;;;;;;;11.80;9.60;;;;;;;;4979255;28;8775;-72
2022/06/09 14:16:42;;;;;;;;;13.40;11.40;;;;;;;;4978850;28;8889;-67
2022/06/09 14:19:09;;;;;;;;;13.60;8.00;;;;;;;;4978952;28;8783;-49
2022/06/09 14:21:35;;;;;;;;;9.00;8.00;;;;;;;;4978130;28;9038;-72
2022/06/09 14:24:05;;;;;;;;;12.40;11.00;;;;;;;;4960986;28;9464;-73
2022/06/09 14:26:36;;;;;;;;;11.20;9.20;;;;;;;;4977912;28;9479;-57
2022/06/09 14:29:06;;;;;;;;;11.20;10.60;;;;;;;;4978484;28;8787;-59
2022/06/09 14:31:33;;;;;;;;;11.60;8.40;;;;;;;;4978523;28;9448;-72
2022/06/09 14:34:00;;;;;;;;;13.40;11.00;;;;;;;;4979045;28;8894;-69
2022/06/09 14:36:27;;;;;;;;;12.40;9.00;;;;;;;;4978095;28;8902;-72
2022/06/09 14:38:54;;;;;;;;;5.80;5.80;;;;;;;;4978470;28;8813;-61
2022/06/09 14:41:20;;;;;;;;;10.40;10.40;;;;;;;;4977981;28;8802;-72
2022/06/09 14:43:47;;;;;;;;;3.00;0.20;;;;;;;;4978389;28;9437;-72
2022/06/09 14:46:15;;;;;;;;;13.00;10.80;;;;;;;;4978943;28;8905;-72
2022/06/09 14:48:42;;;;;;;;;8.60;7.20;;;;;;;;4977838;28;8969;-62
2022/06/09 14:51:10;;;;;;;;;12.20;7.60;;;;;;;;4978522;28;8763;-59
2022/06/09 14:53:36;;;;;;;;;9.60;7.40;;;;;;;;4960464;28;9883;-73